createdAt,value
2023-01-27T00:01:25.825Z,89.95
2023-01-27T00:03:56.190Z,89.71
2023-01-27T00:06:26.070Z,89.91
2023-01-27T00:08:55.750Z,89.82
2023-01-27T00:11:38.121Z,89.61
2023-01-27T00:14:10.242Z,89.83
2023-01-27T00:16:42.450Z,89.74
2023-01-27T00:19:12.120Z,89.50
2023-01-27T00:22:00.469Z,89.71
2023-01-27T00:24:39.316Z,89.64
2023-01-27T00:27:11.076Z,89.70
2023-01-27T00:29:41.887Z,89.63
2023-01-27T00:32:28.676Z,89.47
2023-01-27T00:34:59.249Z,89.82
2023-01-27T00:37:28.970Z,89.61
2023-01-27T00:39:58.632Z,89.53
2023-01-27T00:42:29.282Z,89.77
2023-01-27T00:45:11.427Z,89.90
2023-01-27T00:47:44.728Z,89.97
2023-01-27T00:50:14.975Z,89.90
2023-01-27T00:52:44.758Z,89.84
2023-01-27T00:55:15.999Z,89.80
2023-01-27T00:57:46.920Z,90.06
2023-01-27T01:00:17.537Z,90.05
2023-01-27T01:02:51.532Z,90.24
2023-01-27T01:05:21.251Z,89.96
2023-01-27T01:07:50.890Z,90.15
2023-01-27T01:10:20.575Z,89.88
2023-01-27T01:12:50.173Z,90.02
2023-01-27T01:15:21.648Z,89.83
2023-01-27T01:17:53.937Z,89.86
2023-01-27T01:20:24.851Z,90.01
2023-01-27T01:22:54.576Z,89.87
2023-01-27T01:25:24.205Z,89.85
2023-01-27T01:27:54.056Z,89.61
2023-01-27T01:30:27.549Z,89.70
2023-01-27T01:33:00.404Z,89.74
2023-01-27T01:35:30.063Z,89.94
2023-01-27T01:38:00.777Z,89.98
2023-01-27T01:40:30.431Z,89.94
2023-01-27T01:43:01.120Z,89.67
2023-01-27T01:45:46.023Z,89.78
2023-01-27T01:48:20.994Z,89.62
2023-01-27T01:50:53.918Z,89.70
2023-01-27T01:53:27.355Z,89.74
2023-01-27T01:55:57.142Z,89.89
2023-01-27T01:58:30.147Z,89.67
2023-01-27T02:01:00.795Z,89.63
2023-01-27T02:03:43.869Z,89.65
2023-01-27T02:06:14.570Z,89.71
2023-01-27T02:08:45.347Z,89.68
2023-01-27T02:11:15.349Z,89.67
2023-01-27T02:13:45.470Z,89.71
2023-01-27T02:16:15.859Z,89.80
2023-01-27T02:18:48.447Z,89.89
2023-01-27T02:21:18.066Z,89.79
2023-01-27T02:23:55.812Z,89.79
2023-01-27T02:26:40.203Z,89.59
2023-01-27T02:29:11.451Z,89.67
2023-01-27T02:31:41.769Z,89.56
2023-01-27T02:34:13.017Z,89.86
2023-01-27T02:36:45.072Z,89.84
2023-01-27T02:39:16.259Z,89.52
2023-01-27T02:41:52.025Z,89.56
2023-01-27T02:44:22.725Z,89.81
2023-01-27T02:46:52.649Z,89.63
2023-01-27T02:49:22.595Z,89.75
2023-01-27T02:51:52.615Z,89.50
2023-01-27T02:54:22.609Z,89.44
2023-01-27T02:56:56.008Z,89.42
2023-01-27T02:59:28.230Z,89.44
2023-01-27T03:02:02.031Z,89.52
2023-01-27T03:04:32.019Z,90.01
2023-01-27T03:07:04.030Z,89.75
2023-01-27T03:09:35.977Z,89.80
2023-01-27T03:12:23.321Z,89.86
2023-01-27T03:15:07.152Z,89.95
2023-01-27T03:17:49.488Z,90.24
2023-01-27T03:20:22.341Z,90.29
2023-01-27T03:22:52.428Z,90.43
2023-01-27T03:25:27.609Z,90.52
2023-01-27T03:28:02.390Z,90.71
2023-01-27T03:30:52.425Z,90.68
2023-01-27T03:33:30.484Z,91.06
2023-01-27T03:36:18.679Z,90.92
2023-01-27T03:39:04.637Z,90.62
2023-01-27T03:41:46.761Z,90.48
2023-01-27T03:44:32.043Z,90.96
2023-01-27T03:47:01.778Z,91.01
2023-01-27T03:49:32.255Z,91.11
2023-01-27T03:52:01.966Z,90.95
2023-01-27T03:54:31.682Z,91.46
2023-01-27T03:57:06.564Z,91.52
2023-01-27T03:59:40.199Z,91.72
2023-01-27T04:02:22.755Z,91.82
2023-01-27T04:05:04.893Z,91.93
2023-01-27T04:07:37.561Z,91.85
2023-01-27T04:10:07.593Z,92.09
2023-01-27T04:12:34.636Z,92.37
2023-01-27T04:15:07.364Z,92.23
2023-01-27T04:17:41.169Z,92.33
2023-01-27T04:20:11.720Z,92.39
2023-01-27T04:22:41.433Z,92.30
2023-01-27T04:25:13.290Z,92.25
2023-01-27T04:27:43.808Z,92.04
2023-01-27T04:30:16.772Z,92.14
2023-01-27T04:32:46.459Z,92.52
2023-01-27T04:35:17.174Z,92.47
2023-01-27T04:37:46.832Z,92.71
2023-01-27T04:40:24.207Z,92.99
2023-01-27T04:42:55.836Z,92.99
2023-01-27T04:45:37.292Z,93.33
2023-01-27T04:48:21.373Z,93.17
2023-01-27T04:50:51.318Z,93.36
2023-01-27T04:53:21.152Z,93.03
2023-01-27T04:55:51.726Z,93.31
2023-01-27T04:58:22.282Z,93.49
2023-01-27T05:00:54.852Z,93.69
2023-01-27T05:03:24.610Z,93.68
2023-01-27T05:05:54.307Z,93.67
2023-01-27T05:08:24.090Z,93.68
2023-01-27T05:10:53.799Z,93.82
2023-01-27T05:13:23.710Z,93.68
2023-01-27T05:16:18.104Z,93.66
2023-01-27T05:18:56.335Z,93.59
2023-01-27T05:21:28.392Z,93.80
2023-01-27T05:24:00.325Z,93.57
2023-01-27T05:26:30.971Z,93.63
2023-01-27T05:29:01.296Z,93.62
2023-01-27T05:31:34.280Z,93.58
2023-01-27T05:34:07.622Z,93.69
2023-01-27T05:36:37.304Z,93.65
2023-01-27T05:39:13.066Z,93.79
2023-01-27T05:41:42.975Z,93.58
2023-01-27T05:44:13.943Z,93.70
2023-01-27T05:46:46.204Z,94.30
2023-01-27T05:49:18.216Z,94.49
2023-01-27T05:51:47.991Z,94.54
2023-01-27T05:54:17.671Z,94.79
2023-01-27T05:56:56.382Z,94.85
2023-01-27T05:59:26.096Z,94.94
2023-01-27T06:01:58.388Z,94.96
2023-01-27T06:04:28.093Z,95.06
2023-01-27T06:06:57.941Z,95.15
2023-01-27T06:09:27.584Z,95.47
2023-01-27T06:11:57.168Z,95.93
2023-01-27T06:14:26.992Z,96.04
2023-01-27T06:17:01.144Z,95.77
2023-01-27T06:19:30.819Z,96.05
2023-01-27T06:22:00.630Z,96.09
2023-01-27T06:24:32.789Z,96.02
2023-01-27T06:27:04.335Z,96.03
2023-01-27T06:29:34.176Z,96.11
2023-01-27T06:32:11.319Z,95.88
2023-01-27T06:34:41.343Z,96.08
2023-01-27T06:37:12.937Z,96.07
2023-01-27T06:39:42.750Z,96.23
2023-01-27T06:42:15.410Z,96.15
2023-01-27T06:44:48.413Z,96.20
2023-01-27T06:47:21.914Z,96.31
2023-01-27T06:49:51.776Z,96.43
2023-01-27T06:52:21.379Z,96.38
2023-01-27T06:54:52.393Z,96.23
2023-01-27T06:57:22.412Z,96.44
2023-01-27T06:59:52.403Z,96.53
2023-01-27T07:02:28.015Z,96.32
2023-01-27T07:04:57.660Z,96.63
2023-01-27T07:07:29.750Z,96.54
2023-01-27T07:09:59.552Z,96.67
2023-01-27T07:12:29.429Z,96.68
2023-01-27T07:14:59.559Z,96.50
2023-01-27T07:17:31.849Z,96.46
2023-01-27T07:20:01.460Z,96.26
2023-01-27T07:22:31.215Z,96.36
2023-01-27T07:25:00.902Z,96.38
2023-01-27T07:27:31.425Z,96.64
2023-01-27T07:30:01.422Z,96.39
2023-01-27T07:32:33.742Z,96.47
2023-01-27T07:35:14.770Z,96.61
2023-01-27T07:37:46.727Z,96.53
2023-01-27T07:40:16.758Z,96.45
2023-01-27T07:42:46.505Z,96.47
2023-01-27T07:45:17.968Z,96.50
2023-01-27T07:47:50.330Z,96.17
2023-01-27T07:50:20.130Z,96.11
2023-01-27T07:52:49.939Z,95.84
2023-01-27T07:55:20.007Z,95.86
2023-01-27T07:57:49.684Z,95.77
2023-01-27T08:00:29.336Z,95.45
2023-01-27T08:03:02.087Z,95.30
2023-01-27T08:05:32.314Z,94.65
2023-01-27T08:08:06.400Z,94.57
2023-01-27T08:10:36.005Z,94.36
2023-01-27T08:13:07.256Z,94.50
2023-01-27T08:15:37.001Z,94.39
2023-01-27T08:18:09.260Z,94.00
2023-01-27T08:20:39.195Z,93.93
2023-01-27T08:23:08.904Z,93.32
2023-01-27T08:25:38.510Z,93.47
2023-01-27T08:28:08.316Z,93.08
2023-01-27T08:30:38.002Z,92.71
2023-01-27T08:33:11.016Z,92.33
2023-01-27T08:35:44.664Z,92.26
2023-01-27T08:38:15.174Z,92.03
2023-01-27T08:40:45.516Z,91.60
2023-01-27T08:43:16.573Z,91.51
2023-01-27T08:45:47.182Z,91.10
2023-01-27T08:48:22.862Z,91.17
2023-01-27T08:50:53.149Z,90.87
2023-01-27T08:53:24.783Z,90.77
2023-01-27T08:55:56.562Z,90.53
2023-01-27T08:58:26.946Z,90.38
2023-01-27T09:00:56.707Z,90.62
2023-01-27T09:03:31.753Z,90.79
2023-01-27T09:06:03.625Z,90.71
2023-01-27T09:08:33.998Z,90.44
2023-01-27T09:11:03.816Z,90.19
2023-01-27T09:13:33.599Z,90.31
2023-01-27T09:16:03.549Z,90.61
2023-01-27T09:18:36.101Z,89.65
2023-01-27T09:21:07.143Z,89.82
2023-01-27T09:23:37.981Z,89.65
2023-01-27T09:26:08.173Z,89.55
2023-01-27T09:28:38.041Z,89.90
2023-01-27T09:31:11.220Z,89.44
2023-01-27T09:33:43.578Z,88.98
2023-01-27T09:36:16.837Z,88.77
2023-01-27T09:38:49.035Z,88.80
2023-01-27T09:41:25.269Z,88.70
2023-01-27T09:44:14.497Z,88.62
2023-01-27T09:47:01.657Z,88.25
2023-01-27T09:49:54.099Z,88.36
2023-01-27T09:52:46.909Z,88.62
2023-01-27T09:55:20.542Z,88.25
2023-01-27T09:57:55.621Z,88.36
2023-01-27T10:00:33.394Z,88.47
2023-01-27T10:03:11.565Z,88.20
2023-01-27T10:05:56.414Z,88.35
2023-01-27T10:08:43.858Z,87.45
2023-01-27T10:11:19.197Z,87.52
2023-01-27T10:14:01.748Z,87.87
2023-01-27T10:16:42.746Z,87.74
2023-01-27T10:19:35.869Z,87.94
2023-01-27T10:22:14.241Z,87.53
2023-01-27T10:24:53.968Z,86.87
2023-01-27T10:27:24.957Z,87.23
2023-01-27T10:29:59.623Z,87.07
2023-01-27T10:32:30.499Z,86.84
2023-01-27T10:35:10.648Z,86.66
2023-01-27T10:37:49.770Z,86.56
2023-01-27T10:40:22.764Z,86.63
2023-01-27T10:42:55.761Z,86.54
2023-01-27T10:45:29.732Z,86.13
2023-01-27T10:48:05.115Z,86.49
2023-01-27T10:50:37.318Z,86.34
2023-01-27T10:53:15.118Z,86.53
2023-01-27T10:55:49.572Z,86.31
2023-01-27T10:58:21.866Z,85.82
2023-01-27T11:03:47.375Z,86.56
2023-01-27T11:06:20.698Z,86.11
2023-01-27T11:08:55.609Z,85.86
2023-01-27T11:11:39.490Z,85.44
2023-01-27T11:14:14.978Z,85.26
2023-01-27T11:16:47.089Z,85.40
2023-01-27T11:19:19.795Z,85.11
2023-01-27T11:22:06.292Z,84.90
2023-01-27T11:24:45.560Z,84.65
2023-01-27T11:27:19.848Z,84.41
2023-01-27T11:29:53.599Z,84.22
2023-01-27T11:32:28.921Z,84.13
2023-01-27T11:35:03.212Z,84.37
2023-01-27T11:37:40.408Z,83.67
2023-01-27T11:40:20.882Z,83.94
2023-01-27T11:42:52.050Z,83.77
2023-01-27T11:45:23.136Z,84.14
2023-01-27T11:47:57.203Z,84.33
2023-01-27T11:50:30.702Z,84.05
2023-01-27T11:53:06.492Z,83.88
2023-01-27T11:55:41.115Z,83.73
2023-01-27T11:58:16.692Z,83.97
2023-01-27T12:00:48.159Z,83.59
2023-01-27T12:03:21.955Z,83.35
2023-01-27T12:05:56.679Z,83.34
2023-01-27T12:08:39.821Z,82.73
2023-01-27T12:11:24.354Z,82.50
2023-01-27T12:14:10.229Z,82.61
2023-01-27T12:16:47.893Z,82.17
2023-01-27T12:19:23.751Z,82.04
2023-01-27T12:21:59.715Z,82.45
2023-01-27T12:24:34.037Z,82.43
2023-01-27T12:27:11.429Z,82.70
2023-01-27T12:29:47.261Z,82.19
2023-01-27T12:32:20.625Z,81.75
2023-01-27T12:34:56.334Z,82.39
2023-01-27T12:37:29.330Z,82.07
2023-01-27T12:40:02.449Z,82.25
2023-01-27T12:42:47.396Z,82.40
2023-01-27T12:45:25.431Z,81.96
2023-01-27T12:48:05.003Z,81.59
2023-01-27T12:50:35.526Z,81.90
2023-01-27T12:53:29.832Z,82.07
2023-01-27T12:56:01.760Z,81.92
2023-01-27T12:58:52.754Z,81.67
2023-01-27T13:01:34.040Z,82.13
2023-01-27T13:04:09.415Z,82.27
2023-01-27T13:06:58.976Z,82.44
2023-01-27T13:09:30.870Z,82.37
2023-01-27T13:12:02.089Z,81.92
2023-01-27T13:14:35.556Z,82.35
2023-01-27T13:17:05.123Z,81.70
2023-01-27T13:19:44.721Z,81.67
2023-01-27T13:22:20.161Z,82.16
2023-01-27T13:24:55.829Z,81.89
2023-01-27T13:27:28.318Z,82.37
2023-01-27T13:30:00.771Z,82.25
2023-01-27T13:32:51.185Z,81.86
2023-01-27T13:35:27.726Z,81.95
2023-01-27T13:38:05.075Z,81.87
2023-01-27T13:40:37.507Z,82.00
2023-01-27T13:43:12.625Z,81.92
2023-01-27T13:45:43.813Z,82.03
2023-01-27T13:48:17.346Z,82.28
2023-01-27T13:50:52.771Z,82.56
2023-01-27T13:53:22.923Z,82.09
2023-01-27T13:55:59.515Z,82.06
2023-01-27T13:58:34.565Z,82.05
2023-01-27T14:01:12.220Z,81.62
2023-01-27T14:03:50.400Z,81.61
2023-01-27T14:06:30.487Z,81.48
2023-01-27T14:09:10.903Z,81.05
2023-01-27T14:11:44.976Z,81.30
2023-01-27T14:14:25.794Z,80.75
2023-01-27T14:17:03.042Z,81.06
2023-01-27T14:19:40.381Z,80.42
2023-01-27T14:22:17.283Z,80.71
2023-01-27T14:24:50.293Z,80.92
2023-01-27T14:27:22.844Z,81.50
2023-01-27T14:29:56.830Z,81.29
2023-01-27T14:32:30.146Z,81.42
2023-01-27T14:35:10.018Z,80.30
2023-01-27T14:37:48.512Z,80.43
2023-01-27T14:40:23.894Z,80.76
2023-01-27T14:43:06.508Z,79.80
2023-01-27T14:45:38.616Z,79.72
2023-01-27T14:48:18.875Z,80.15
2023-01-27T14:50:52.832Z,79.68
2023-01-27T14:53:32.603Z,79.87
2023-01-27T14:56:07.513Z,79.89
2023-01-27T14:58:45.445Z,79.54
2023-01-27T15:01:24.851Z,79.72
2023-01-27T15:04:05.360Z,79.72
2023-01-27T15:06:39.067Z,79.43
2023-01-27T15:09:17.134Z,79.05
2023-01-27T15:11:54.724Z,78.42
2023-01-27T15:14:41.825Z,78.80
2023-01-27T15:17:18.352Z,78.49
2023-01-27T15:20:03.144Z,78.03
2023-01-27T15:22:45.278Z,77.30
2023-01-27T15:25:29.758Z,75.97
2023-01-27T15:28:00.199Z,76.25
2023-01-27T15:30:30.726Z,76.26
2023-01-27T15:33:00.664Z,75.70
2023-01-27T15:35:38.091Z,75.98
2023-01-27T15:38:22.676Z,75.72
2023-01-27T15:41:02.087Z,75.37
2023-01-27T15:43:36.125Z,75.69
2023-01-27T15:46:26.822Z,74.28
2023-01-27T15:48:57.861Z,74.89
2023-01-27T15:51:36.397Z,74.56
2023-01-27T15:54:06.856Z,74.74
2023-01-27T15:56:50.924Z,74.99
2023-01-27T15:59:23.900Z,74.55
2023-01-27T16:02:20.213Z,74.46
2023-01-27T16:05:08.527Z,74.26
2023-01-27T16:07:39.968Z,74.72
2023-01-27T16:10:16.816Z,74.31
2023-01-27T16:12:49.843Z,74.58
2023-01-27T16:15:24.007Z,75.34
2023-01-27T16:18:04.370Z,74.46
2023-01-27T16:20:36.000Z,74.92
2023-01-27T16:23:11.256Z,74.51
2023-01-27T16:25:44.117Z,74.55
2023-01-27T16:28:21.162Z,75.33
2023-01-27T16:31:04.792Z,75.98
2023-01-27T16:33:36.904Z,75.78
2023-01-27T16:36:09.148Z,75.49
2023-01-27T16:38:40.523Z,75.29
2023-01-27T16:41:21.033Z,75.05
2023-01-27T16:43:56.793Z,74.97
2023-01-27T16:46:31.500Z,74.61
2023-01-27T16:49:01.755Z,74.45
2023-01-27T16:51:32.455Z,73.48
2023-01-27T16:54:05.111Z,73.24
2023-01-27T16:56:36.549Z,73.52
2023-01-27T16:59:10.276Z,72.99
2023-01-27T17:01:42.697Z,73.14
2023-01-27T17:04:20.136Z,73.27
2023-01-27T17:06:50.965Z,73.40
2023-01-27T17:09:36.600Z,73.60
2023-01-27T17:12:07.886Z,73.56
2023-01-27T17:14:42.736Z,74.33
2023-01-27T17:17:22.625Z,74.05
2023-01-27T17:19:54.841Z,74.15
2023-01-27T17:22:26.088Z,73.76
2023-01-27T17:24:57.989Z,73.97
2023-01-27T17:27:29.531Z,74.14
2023-01-27T17:30:05.310Z,74.38
2023-01-27T17:32:38.461Z,73.85
2023-01-27T17:35:09.516Z,73.59
2023-01-27T17:37:47.662Z,74.29
2023-01-27T17:40:18.733Z,74.39
2023-01-27T17:42:50.574Z,73.05
2023-01-27T17:45:30.505Z,73.59
2023-01-27T17:48:04.847Z,74.00
2023-01-27T17:50:37.687Z,74.25
2023-01-27T17:53:22.381Z,74.29
2023-01-27T17:55:51.965Z,73.58
2023-01-27T17:58:25.343Z,74.26
2023-01-27T18:00:58.891Z,72.74
2023-01-27T18:03:29.804Z,72.94
2023-01-27T18:06:00.120Z,73.22
2023-01-27T18:08:29.949Z,73.46
2023-01-27T18:11:11.221Z,73.32
2023-01-27T18:13:43.178Z,73.57
2023-01-27T18:16:24.583Z,73.51
2023-01-27T18:18:54.780Z,73.95
2023-01-27T18:21:26.149Z,73.63
2023-01-27T18:23:57.425Z,73.82
2023-01-27T18:26:37.243Z,73.91
2023-01-27T18:29:18.717Z,74.61
2023-01-27T18:31:52.791Z,73.12
2023-01-27T18:34:35.577Z,74.14
2023-01-27T18:37:24.087Z,73.52
2023-01-27T18:39:53.749Z,73.56
2023-01-27T18:42:26.112Z,73.94
2023-01-27T18:44:56.097Z,74.02
2023-01-27T18:47:36.502Z,74.50
2023-01-27T18:50:18.238Z,74.37
2023-01-27T18:52:48.977Z,74.43
2023-01-27T18:55:20.389Z,74.89
2023-01-27T18:57:51.363Z,74.26
2023-01-27T19:00:22.585Z,74.49
2023-01-27T19:02:56.395Z,74.52
2023-01-27T19:05:27.296Z,74.26
2023-01-27T19:07:57.071Z,74.35
2023-01-27T19:10:28.507Z,74.25
2023-01-27T19:13:07.248Z,74.29
2023-01-27T19:15:37.904Z,74.86
2023-01-27T19:18:27.881Z,73.83
2023-01-27T19:20:57.605Z,74.26
2023-01-27T19:23:28.767Z,74.48
2023-01-27T19:26:00.037Z,74.07
2023-01-27T19:28:38.808Z,73.82
2023-01-27T19:31:09.336Z,74.20
2023-01-27T19:33:45.180Z,74.07
2023-01-27T19:36:26.870Z,73.91
2023-01-27T19:39:00.984Z,73.03
2023-01-27T19:41:30.928Z,73.43
2023-01-27T19:44:00.705Z,73.63
2023-01-27T19:46:30.358Z,73.44
2023-01-27T19:49:02.588Z,73.87
2023-01-27T19:51:32.787Z,73.76
2023-01-27T19:54:05.474Z,74.15
2023-01-27T19:56:35.182Z,73.40
2023-01-27T19:59:09.622Z,72.98
2023-01-27T20:01:39.312Z,73.35
2023-01-27T20:04:11.853Z,73.72
2023-01-27T20:06:41.820Z,73.34
2023-01-27T20:09:13.097Z,72.79
2023-01-27T20:11:45.770Z,73.35
2023-01-27T20:14:16.472Z,73.37
2023-01-27T20:16:46.320Z,73.13
2023-01-27T20:19:19.739Z,72.92
2023-01-27T20:21:49.990Z,72.97
2023-01-27T20:24:20.399Z,72.63
2023-01-27T20:26:50.157Z,73.14
2023-01-27T20:29:19.836Z,72.70
2023-01-27T20:31:49.794Z,71.86
2023-01-27T20:34:22.341Z,72.05
2023-01-27T20:36:52.291Z,72.67
2023-01-27T20:39:22.054Z,72.97
2023-01-27T20:41:52.655Z,72.69
2023-01-27T20:44:28.744Z,72.39
2023-01-27T20:47:00.779Z,72.45
2023-01-27T20:49:33.002Z,73.14
2023-01-27T20:52:08.551Z,73.34
2023-01-27T20:54:38.235Z,72.40
2023-01-27T20:57:10.720Z,72.07
2023-01-27T20:59:40.328Z,71.99
2023-01-27T21:02:12.547Z,71.98
2023-01-27T21:04:51.443Z,72.42
2023-01-27T21:07:21.232Z,72.61
2023-01-27T21:09:51.379Z,71.19
2023-01-27T21:12:21.033Z,71.40
2023-01-27T21:14:50.778Z,72.06
2023-01-27T21:17:20.510Z,70.13
2023-01-27T21:19:52.833Z,70.14
2023-01-27T21:22:22.762Z,68.47
2023-01-27T21:24:52.445Z,68.72
2023-01-27T21:27:22.728Z,69.11
2023-01-27T21:29:53.007Z,68.71
2023-01-27T21:32:22.946Z,67.33
2023-01-27T21:34:56.955Z,67.83
2023-01-27T21:37:26.734Z,68.11
2023-01-27T21:39:56.305Z,68.62
2023-01-27T21:42:38.402Z,68.70
2023-01-27T21:45:17.966Z,69.50
2023-01-27T21:47:47.701Z,69.00
2023-01-27T21:50:20.268Z,69.31
2023-01-27T21:52:52.940Z,68.73
2023-01-27T21:55:23.152Z,69.32
2023-01-27T21:57:56.210Z,68.80
2023-01-27T22:00:26.970Z,69.16
2023-01-27T22:02:57.337Z,68.31
2023-01-27T22:05:30.350Z,68.64
2023-01-27T22:08:01.979Z,69.10
2023-01-27T22:10:38.212Z,68.80
2023-01-27T22:13:09.712Z,69.86
2023-01-27T22:15:41.010Z,69.19
2023-01-27T22:18:13.473Z,69.98
2023-01-27T22:20:45.675Z,70.15
2023-01-27T22:23:19.072Z,69.94
2023-01-27T22:25:50.863Z,70.39
2023-01-27T22:28:22.326Z,69.12
2023-01-27T22:30:52.061Z,70.14
2023-01-27T22:33:22.035Z,70.10
2023-01-27T22:36:00.935Z,69.63
2023-01-27T22:38:30.727Z,69.92
2023-01-27T22:41:01.252Z,69.94
2023-01-27T22:43:31.041Z,70.35
2023-01-27T22:46:02.563Z,70.58
2023-01-27T22:48:32.370Z,70.44
2023-01-27T22:51:08.085Z,70.60
2023-01-27T22:53:37.688Z,70.49
2023-01-27T22:56:07.706Z,70.44
2023-01-27T22:58:37.436Z,70.19
2023-01-27T23:01:08.011Z,70.72
2023-01-27T23:03:37.671Z,70.00
2023-01-27T23:06:10.879Z,69.68
2023-01-27T23:08:40.554Z,69.58
2023-01-27T23:11:10.481Z,69.42
2023-01-27T23:13:40.467Z,70.15
2023-01-27T23:16:11.818Z,70.10
2023-01-27T23:18:41.602Z,70.36
2023-01-27T23:21:14.262Z,70.24
2023-01-27T23:23:45.285Z,69.73
2023-01-27T23:26:25.656Z,69.75
2023-01-27T23:28:57.414Z,70.52
2023-01-27T23:31:27.958Z,70.20
2023-01-27T23:34:00.088Z,70.43
2023-01-27T23:36:32.387Z,70.97
2023-01-27T23:39:02.147Z,71.09
2023-01-27T23:41:31.826Z,71.11
2023-01-27T23:44:01.551Z,70.43
2023-01-27T23:46:31.350Z,70.35
2023-01-27T23:49:01.025Z,70.69
2023-01-27T23:51:33.260Z,70.95
2023-01-27T23:54:03.183Z,67.95
2023-01-27T23:56:32.962Z,68.42
2023-01-27T23:59:02.907Z,67.65
